^^
Saratoga-Weather Station Historical Data
Daily Summary for August 3, 2021 Units:  Both    English   Metric
Daily Weekly Monthly Yearly Custom
  High: Low: Average:
Temperature: 70.5 °F /  21.4 °C 54 °F /  12.2 °C 62.8 °F /  17.1 °C
Dew Point: 59.7 °F /  15.4 °C 51.6 °F /  10.9 °C 55.8 °F /  13.2 °C
Humidity: 93% 63% 79%
Wind Speed: 13mph /  20.9km/h - 2.7mph /  4.4km/h
Wind Gust: 18mph /  29km/h - -
Wind- - South
Pressure: 29.9 in /  1013.5 hPa 29.5 in /  998.3 hPa -
Precipitation: 0.24 in /  6.1 mm    
Historical Graphs
 
 
Tabular Data for August 3, 2021
Time Temperature Dew Point Pressure Wind Wind Speed Wind Gust Humidity Rainfall Rate (Hourly) solar
00:02 64.8 °F /  18.2 °C 55.9 °F /  13.3 °C 29.6in /  1002.0hPa NE 6mph /  9.7km/h 6mph /  9.7km/h 73% 0in /  0.0mm 0 W/m2
00:07 64.9 °F /  18.3 °C 56.1 °F /  13.4 °C 29.6in /  1001.7hPa ESE 2.9mph /  4.7km/h 7mph /  11.3km/h 73% 0in /  0.0mm 0 W/m2
00:12 64.9 °F /  18.3 °C 56.1 °F /  13.4 °C 29.6in /  1001.7hPa North 4.9mph /  7.9km/h 11mph /  17.7km/h 73% 0in /  0.0mm 0 W/m2
00:17 65.1 °F /  18.4 °C 55.9 °F /  13.3 °C 29.6in /  1001.7hPa NE 2mph /  3.2km/h 4mph /  6.4km/h 72% 0in /  0.0mm 0 W/m2
00:22 64.9 °F /  18.3 °C 55.4 °F /  13 °C 29.6in /  1001.7hPa NNW 2.9mph /  4.7km/h 11mph /  17.7km/h 71% 0in /  0.0mm 0 W/m2
00:27 65.1 °F /  18.4 °C 55.4 °F /  13 °C 29.6in /  1001.4hPa NW 0.9mph /  1.4km/h 7mph /  11.3km/h 71% 0in /  0.0mm 0 W/m2
00:32 65.3 °F /  18.5 °C 55.6 °F /  13.1 °C 29.6in /  1001.4hPa NE 4.9mph /  7.9km/h 7mph /  11.3km/h 71% 0in /  0.0mm 0 W/m2
00:37 65.5 °F /  18.6 °C 55.4 °F /  13 °C 29.6in /  1001.4hPa ENE 2mph /  3.2km/h 5mph /  8km/h 70% 0in /  0.0mm 0 W/m2
00:42 65.7 °F /  18.7 °C 55.2 °F /  12.9 °C 29.6in /  1001.4hPa ENE 2mph /  3.2km/h 9mph /  14.5km/h 69% 0in /  0.0mm 0 W/m2
00:47 65.7 °F /  18.7 °C 55.2 °F /  12.9 °C 29.6in /  1001.4hPa NE 2mph /  3.2km/h 7mph /  11.3km/h 69% 0in /  0.0mm 0 W/m2
00:52 65.7 °F /  18.7 °C 55.2 °F /  12.9 °C 29.6in /  1001.4hPa North 2.9mph /  4.7km/h 7mph /  11.3km/h 69% 0in /  0.0mm 0 W/m2
00:57 65.7 °F /  18.7 °C 54.9 °F /  12.7 °C 29.6in /  1001.4hPa WSW 0.9mph /  1.4km/h 12mph /  19.3km/h 68% 0in /  0.0mm 0 W/m2
01:02 65.8 °F /  18.8 °C 55 °F /  12.8 °C 29.6in /  1001.4hPa North 0.9mph /  1.4km/h 7mph /  11.3km/h 68% 0in /  0.0mm 0 W/m2
01:07 65.7 °F /  18.7 °C 54.9 °F /  12.7 °C 29.6in /  1001.4hPa NE 2mph /  3.2km/h 12mph /  19.3km/h 68% 0in /  0.0mm 0 W/m2
01:12 65.7 °F /  18.7 °C 54.9 °F /  12.7 °C 29.6in /  1001.4hPa NE 4mph /  6.4km/h 4mph /  6.4km/h 68% 0in /  0.0mm 0 W/m2
01:17 65.5 °F /  18.6 °C 54.7 °F /  12.6 °C 29.6in /  1001.4hPa NNW 2mph /  3.2km/h 8mph /  12.9km/h 68% 0in /  0.0mm 0 W/m2
01:22 65.7 °F /  18.7 °C 54.9 °F /  12.7 °C 29.6in /  1001.7hPa WSW 2.9mph /  4.7km/h 6mph /  9.7km/h 68% 0in /  0.0mm 0 W/m2
01:27 65.7 °F /  18.7 °C 54.3 °F /  12.4 °C 29.6in /  1001.4hPa NNE 0.9mph /  1.4km/h 4mph /  6.4km/h 67% 0in /  0.0mm 0 W/m2
01:32 65.7 °F /  18.7 °C 54.9 °F /  12.7 °C 29.6in /  1001.4hPa North 2.9mph /  4.7km/h 4mph /  6.4km/h 68% 0in /  0.0mm 0 W/m2
01:37 65.7 °F /  18.7 °C 54.9 °F /  12.7 °C 29.6in /  1001.4hPa NNE 4.9mph /  7.9km/h 6mph /  9.7km/h 68% 0in /  0.0mm 0 W/m2
01:42 65.7 °F /  18.7 °C 54.9 °F /  12.7 °C 29.6in /  1001.4hPa ENE 0.9mph /  1.4km/h 5mph /  8km/h 68% 0in /  0.0mm 0 W/m2
01:47 65.5 °F /  18.6 °C 54.7 °F /  12.6 °C 29.6in /  1001.4hPa ENE 0.9mph /  1.4km/h 4mph /  6.4km/h 68% 0in /  0.0mm 0 W/m2
01:52 65.7 °F /  18.7 °C 54.9 °F /  12.7 °C 29.6in /  1001.4hPa ENE 0.9mph /  1.4km/h 10mph /  16.1km/h 68% 0in /  0.0mm 0 W/m2
01:57 65.7 °F /  18.7 °C 54.3 °F /  12.4 °C 29.6in /  1001.4hPa ESE 2.9mph /  4.7km/h 7mph /  11.3km/h 67% 0in /  0.0mm 0 W/m2
02:02 65.7 °F /  18.7 °C 54.3 °F /  12.4 °C 29.6in /  1001.4hPa NW 2mph /  3.2km/h 10mph /  16.1km/h 67% 0in /  0.0mm 0 W/m2
02:07 65.8 °F /  18.8 °C 54.5 °F /  12.5 °C 29.6in /  1001.4hPa ENE 0.9mph /  1.4km/h 9mph /  14.5km/h 67% 0in /  0.0mm 0 W/m2
02:12 66 °F /  18.9 °C 54.3 °F /  12.4 °C 29.6in /  1001.4hPa NW 2mph /  3.2km/h 10mph /  16.1km/h 66% 0in /  0.0mm 0 W/m2
02:17 66 °F /  18.9 °C 54.7 °F /  12.6 °C 29.6in /  1001.4hPa NNE 0.9mph /  1.4km/h 4mph /  6.4km/h 67% 0in /  0.0mm 0 W/m2
02:22 66 °F /  18.9 °C 54.7 °F /  12.6 °C 29.6in /  1001.4hPa NNW 2mph /  3.2km/h 8mph /  12.9km/h 67% 0in /  0.0mm 0 W/m2
02:27 66 °F /  18.9 °C 54.3 °F /  12.4 °C 29.6in /  1001.4hPa NW 0.9mph /  1.4km/h 5mph /  8km/h 66% 0in /  0.0mm 0 W/m2
02:32 66 °F /  18.9 °C 54.7 °F /  12.6 °C 29.6in /  1001.4hPa North 2mph /  3.2km/h 8mph /  12.9km/h 67% 0in /  0.0mm 0 W/m2
02:37 66 °F /  18.9 °C 54.7 °F /  12.6 °C 29.6in /  1001.4hPa North 2mph /  3.2km/h 3mph /  4.8km/h 67% 0in /  0.0mm 0 W/m2
02:42 66 °F /  18.9 °C 54.7 °F /  12.6 °C 29.6in /  1001.4hPa NNW 0.9mph /  1.4km/h 6mph /  9.7km/h 67% 0in /  0.0mm 0 W/m2
02:47 65.8 °F /  18.8 °C 54.5 °F /  12.5 °C 29.6in /  1001.0hPa North 2mph /  3.2km/h 4mph /  6.4km/h 67% 0in /  0.0mm 0 W/m2
02:52 65.8 °F /  18.8 °C 54.5 °F /  12.5 °C 29.6in /  1001.0hPa NE 0.9mph /  1.4km/h 4mph /  6.4km/h 67% 0in /  0.0mm 0 W/m2
02:57 65.8 °F /  18.8 °C 54.5 °F /  12.5 °C 29.6in /  1001.0hPa South 2mph /  3.2km/h 7mph /  11.3km/h 67% 0in /  0.0mm 0 W/m2
03:02 65.8 °F /  18.8 °C 54.5 °F /  12.5 °C 29.6in /  1001.0hPa North 2mph /  3.2km/h 3mph /  4.8km/h 67% 0in /  0.0mm 0 W/m2
03:07 66 °F /  18.9 °C 54.7 °F /  12.6 °C 29.6in /  1000.7hPa NNE 2mph /  3.2km/h 7mph /  11.3km/h 67% 0in /  0.0mm 0 W/m2
03:12 66 °F /  18.9 °C 54.7 °F /  12.6 °C 29.6in /  1000.7hPa Calm   5mph /  8km/h 67% 0in /  0.0mm 0 W/m2
03:17 66 °F /  18.9 °C 54.7 °F /  12.6 °C 29.6in /  1000.7hPa NE 4mph /  6.4km/h 6mph /  9.7km/h 67% 0in /  0.0mm 0 W/m2
03:22 66.2 °F /  19 °C 54.5 °F /  12.5 °C 29.6in /  1000.7hPa ENE 4mph /  6.4km/h 5mph /  8km/h 66% 0in /  0.0mm 0 W/m2
03:27 66.4 °F /  19.1 °C 54.7 °F /  12.6 °C 29.6in /  1000.7hPa East 2mph /  3.2km/h 7mph /  11.3km/h 66% 0in /  0.0mm 0 W/m2
03:32 66.4 °F /  19.1 °C 54.7 °F /  12.6 °C 29.5in /  1000.3hPa North 0.9mph /  1.4km/h 4mph /  6.4km/h 66% 0in /  0.0mm 0 W/m2
03:37 66.4 °F /  19.1 °C 54.7 °F /  12.6 °C 29.5in /  1000.3hPa East 0.9mph /  1.4km/h 4mph /  6.4km/h 66% 0in /  0.0mm 0 W/m2
03:42 66.4 °F /  19.1 °C 54.7 °F /  12.6 °C 29.5in /  1000.3hPa NE 2mph /  3.2km/h 3mph /  4.8km/h 66% 0in /  0.0mm 0 W/m2
03:47 66.2 °F /  19 °C 54.9 °F /  12.7 °C 29.5in /  1000.3hPa ENE 2mph /  3.2km/h 3mph /  4.8km/h 67% 0in /  0.0mm 0 W/m2
03:52 66 °F /  18.9 °C 54.7 °F /  12.6 °C 29.5in /  1000.3hPa ENE 2.9mph /  4.7km/h 6mph /  9.7km/h 67% 0in /  0.0mm 0 W/m2
03:57 66.2 °F /  19 °C 54.9 °F /  12.7 °C 29.5in /  1000.3hPa East 4mph /  6.4km/h 7mph /  11.3km/h 67% 0in /  0.0mm 0 W/m2
04:02 66.2 °F /  19 °C 54.9 °F /  12.7 °C 29.5in /  1000.0hPa ESE 2.9mph /  4.7km/h 8mph /  12.9km/h 67% 0in /  0.0mm 0 W/m2
04:07 66.2 °F /  19 °C 54.9 °F /  12.7 °C 29.5in /  1000.0hPa NE 4mph /  6.4km/h 5mph /  8km/h 67% 0in /  0.0mm 0 W/m2
04:12 66 °F /  18.9 °C 54.7 °F /  12.6 °C 29.5in /  1000.0hPa ESE 6mph /  9.7km/h 9mph /  14.5km/h 67% 0in /  0.0mm 0 W/m2
04:17 66.2 °F /  19 °C 54.9 °F /  12.7 °C 29.5in /  1000.0hPa East 0.9mph /  1.4km/h 9mph /  14.5km/h 67% 0in /  0.0mm 0 W/m2
04:22 66.2 °F /  19 °C 54.9 °F /  12.7 °C 29.5in /  999.7hPa ENE 0.9mph /  1.4km/h 10mph /  16.1km/h 67% 0in /  0.0mm 0 W/m2
04:27 66.2 °F /  19 °C 55.4 °F /  13 °C 29.5in /  999.7hPa ENE 2.9mph /  4.7km/h 5mph /  8km/h 68% 0in /  0.0mm 0 W/m2
04:32 66.2 °F /  19 °C 55.4 °F /  13 °C 29.5in /  999.7hPa East 0.9mph /  1.4km/h 2mph /  3.2km/h 68% 0in /  0.0mm 0 W/m2
04:37 66.2 °F /  19 °C 55.4 °F /  13 °C 29.5in /  999.7hPa ENE 4mph /  6.4km/h 9mph /  14.5km/h 68% 0in /  0.0mm 0 W/m2
04:42 66.4 °F /  19.1 °C 55.6 °F /  13.1 °C 29.5in /  999.7hPa ENE 4.9mph /  7.9km/h 7mph /  11.3km/h 68% 0in /  0.0mm 0 W/m2
04:47 66.6 °F /  19.2 °C 55.6 °F /  13.1 °C 29.5in /  999.3hPa East 6.9mph /  11.1km/h 9mph /  14.5km/h 68% 0in /  0.0mm 0 W/m2
04:52 66.6 °F /  19.2 °C 55.6 °F /  13.1 °C 29.5in /  999.3hPa East 2.9mph /  4.7km/h 12mph /  19.3km/h 68% 0in /  0.0mm 0 W/m2
04:57 66.6 °F /  19.2 °C 55.6 °F /  13.1 °C 29.5in /  999.3hPa NNE 4mph /  6.4km/h 8mph /  12.9km/h 68% 0in /  0.0mm 0 W/m2
05:02 66.6 °F /  19.2 °C 55.6 °F /  13.1 °C 29.5in /  999.3hPa ENE 6.9mph /  11.1km/h 12mph /  19.3km/h 68% 0in /  0.0mm 0 W/m2
05:07 66.7 °F /  19.3 °C 55.8 °F /  13.2 °C 29.5in /  999.0hPa ESE 6.9mph /  11.1km/h 7mph /  11.3km/h 68% 0in /  0.0mm 0 W/m2
05:12 66.7 °F /  19.3 °C 55.8 °F /  13.2 °C 29.5in /  999.0hPa East 2mph /  3.2km/h 4mph /  6.4km/h 68% 0in /  0.0mm 0 W/m2
05:17 66.7 °F /  19.3 °C 55.8 °F /  13.2 °C 29.5in /  999.0hPa East 8.9mph /  14.3km/h 11mph /  17.7km/h 68% 0in /  0.0mm 0 W/m2
05:22 66.9 °F /  19.4 °C 55.9 °F /  13.3 °C 29.5in /  999.0hPa ESE 2.9mph /  4.7km/h 9mph /  14.5km/h 68% 0in /  0.0mm 0 W/m2
05:27 66.9 °F /  19.4 °C 55.9 °F /  13.3 °C 29.5in /  998.6hPa North 11mph /  17.7km/h 11mph /  17.7km/h 68% 0in /  0.0mm 0 W/m2
05:32 67.1 °F /  19.5 °C 56.1 °F /  13.4 °C 29.5in /  999.0hPa NNW 2mph /  3.2km/h 9mph /  14.5km/h 68% 0in /  0.0mm 0 W/m2
05:37 67.1 °F /  19.5 °C 55.8 °F /  13.2 °C 29.5in /  999.0hPa ENE 10.1mph /  16.3km/h 10mph /  16.1km/h 67% 0in /  0.0mm 0 W/m2
05:42 67.3 °F /  19.6 °C 55.9 °F /  13.3 °C 29.5in /  999.0hPa NW 2.9mph /  4.7km/h 5mph /  8km/h 67% 0in /  0.0mm 0 W/m2
05:48 67.3 °F /  19.6 °C 55.9 °F /  13.3 °C 29.5in /  998.6hPa NE 4mph /  6.4km/h 6mph /  9.7km/h 67% 0in /  0.0mm 0 W/m2
05:53 67.5 °F /  19.7 °C 56.1 °F /  13.4 °C 29.5in /  998.6hPa East 4.9mph /  7.9km/h 6mph /  9.7km/h 67% 0in /  0.0mm 0 W/m2
05:58 67.5 °F /  19.7 °C 56.1 °F /  13.4 °C 29.5in /  998.6hPa North 4mph /  6.4km/h 13mph /  20.9km/h 67% 0in /  0.0mm 0 W/m2
06:03 67.5 °F /  19.7 °C 56.1 °F /  13.4 °C 29.5in /  999.0hPa SE 2.9mph /  4.7km/h 6mph /  9.7km/h 67% 0in /  0.0mm 0 W/m2
06:08 67.5 °F /  19.7 °C 56.1 °F /  13.4 °C 29.5in /  999.0hPa NNW 4mph /  6.4km/h 13mph /  20.9km/h 67% 0in /  0.0mm 0 W/m2
06:13 67.3 °F /  19.6 °C 56.3 °F /  13.5 °C 29.5in /  998.6hPa WNW 8.9mph /  14.3km/h 12mph /  19.3km/h 68% 0in /  0.0mm 0 W/m2
06:18 67.1 °F /  19.5 °C 56.1 °F /  13.4 °C 29.5in /  998.6hPa ESE 2mph /  3.2km/h 5mph /  8km/h 68% 0in /  0.0mm 0 W/m2
06:23 66.9 °F /  19.4 °C 55.9 °F /  13.3 °C 29.5in /  998.6hPa NNE 2mph /  3.2km/h 6mph /  9.7km/h 68% 0in /  0.0mm 0 W/m2
06:28 66.9 °F /  19.4 °C 55.9 °F /  13.3 °C 29.5in /  998.6hPa East 4mph /  6.4km/h 5mph /  8km/h 68% 0in /  0.0mm 0 W/m2
06:33 66.9 °F /  19.4 °C 55.6 °F /  13.1 °C 29.5in /  998.6hPa NE 6mph /  9.7km/h 10mph /  16.1km/h 67% 0in /  0.0mm 0 W/m2
06:38 66.9 °F /  19.4 °C 55.9 °F /  13.3 °C 29.5in /  998.6hPa NNW 2.9mph /  4.7km/h 6mph /  9.7km/h 68% 0in /  0.0mm 0 W/m2
06:43 66.9 °F /  19.4 °C 55.9 °F /  13.3 °C 29.5in /  998.3hPa SE 6.9mph /  11.1km/h 9mph /  14.5km/h 68% 0in /  0.0mm 0 W/m2
06:48 66.7 °F /  19.3 °C 55.4 °F /  13 °C 29.5in /  998.3hPa NW 2.9mph /  4.7km/h 8mph /  12.9km/h 67% 0in /  0.0mm 0 W/m2
06:53 66.9 °F /  19.4 °C 55.6 °F /  13.1 °C 29.5in /  998.6hPa NNW 6mph /  9.7km/h 9mph /  14.5km/h 67% 0in /  0.0mm 0 W/m2
06:58 66.9 °F /  19.4 °C 55.6 °F /  13.1 °C 29.5in /  998.6hPa ENE 2.9mph /  4.7km/h 11mph /  17.7km/h 67% 0in /  0.0mm 0 W/m2
07:03 66.7 °F /  19.3 °C 55.8 °F /  13.2 °C 29.5in /  998.6hPa North 4mph /  6.4km/h 9mph /  14.5km/h 68% 0in /  0.0mm 0 W/m2
07:08 66.6 °F /  19.2 °C 56.1 °F /  13.4 °C 29.5in /  998.6hPa NNW 2mph /  3.2km/h 11mph /  17.7km/h 69% 0in /  0.0mm 0 W/m2
07:13 66.4 °F /  19.1 °C 56.3 °F /  13.5 °C 29.5in /  998.6hPa North 4.9mph /  7.9km/h 5mph /  8km/h 70% 0in /  0.0mm 0 W/m2
07:18 66 °F /  18.9 °C 55.9 °F /  13.3 °C 29.5in /  998.6hPa ENE 0.9mph /  1.4km/h 4mph /  6.4km/h 70% 0in /  0.0mm 0 W/m2
07:23 65.8 °F /  18.8 °C 55.4 °F /  13 °C 29.5in /  998.6hPa NE 2.9mph /  4.7km/h 7mph /  11.3km/h 69% 0in /  0.0mm 0 W/m2
07:28 66 °F /  18.9 °C 55.2 °F /  12.9 °C 29.5in /  998.6hPa ENE 2.9mph /  4.7km/h 5mph /  8km/h 68% 0in /  0.0mm 0 W/m2
07:33 66.4 °F /  19.1 °C 55.6 °F /  13.1 °C 29.5in /  998.6hPa NNE 2mph /  3.2km/h 9mph /  14.5km/h 68% 0in /  0.0mm 0 W/m2
07:38 66.6 °F /  19.2 °C 55.6 °F /  13.1 °C 29.5in /  998.6hPa NE 2mph /  3.2km/h 3mph /  4.8km/h 68% 0in /  0.0mm 0 W/m2
07:43 66.6 °F /  19.2 °C 55.6 °F /  13.1 °C 29.5in /  998.6hPa NE 4.9mph /  7.9km/h 7mph /  11.3km/h 68% 0in /  0.0mm 0 W/m2
07:48 66.7 °F /  19.3 °C 55.4 °F /  13 °C 29.5in /  998.3hPa ENE 4.9mph /  7.9km/h 9mph /  14.5km/h 67% 0in /  0.0mm 0 W/m2
07:53 66.7 °F /  19.3 °C 55.4 °F /  13 °C 29.5in /  998.3hPa NE 6.9mph /  11.1km/h 10mph /  16.1km/h 67% 0in /  0.0mm 0 W/m2
07:58 66.7 °F /  19.3 °C 55.4 °F /  13 °C 29.5in /  998.6hPa ESE 8.1mph /  13km/h 12mph /  19.3km/h 67% 0in /  0.0mm 5 W/m2
08:03 66.9 °F /  19.4 °C 55.9 °F /  13.3 °C 29.5in /  998.6hPa North 0.9mph /  1.4km/h 10mph /  16.1km/h 68% 0in /  0.0mm 0 W/m2
08:08 66.9 °F /  19.4 °C 55.9 °F /  13.3 °C 29.5in /  999.0hPa NE 2mph /  3.2km/h 12mph /  19.3km/h 68% 0in /  0.0mm 5 W/m2
08:13 67.1 °F /  19.5 °C 56.1 °F /  13.4 °C 29.5in /  999.0hPa NNE 2mph /  3.2km/h 4mph /  6.4km/h 68% 0in /  0.0mm 11 W/m2
08:18 67.5 °F /  19.7 °C 56.5 °F /  13.6 °C 29.5in /  999.0hPa NE 2mph /  3.2km/h 13mph /  20.9km/h 68% 0in /  0.0mm 12 W/m2
08:23 67.3 °F /  19.6 °C 56.3 °F /  13.5 °C 29.5in /  999.0hPa NE 2.9mph /  4.7km/h 13mph /  20.9km/h 68% 0in /  0.0mm 18 W/m2
08:28 67.1 °F /  19.5 °C 57 °F /  13.9 °C 29.5in /  999.0hPa NNW 2mph /  3.2km/h 5mph /  8km/h 70% 0in /  0.0mm 18 W/m2
08:33 66.7 °F /  19.3 °C 57 °F /  13.9 °C 29.5in /  999.3hPa North 2.9mph /  4.7km/h 4mph /  6.4km/h 71% 0in /  0.0mm 16 W/m2
08:38 66.4 °F /  19.1 °C 57.4 °F /  14.1 °C 29.5in /  999.0hPa NW 2mph /  3.2km/h 7mph /  11.3km/h 73% 0.01in /  0.2mm 18 W/m2
08:43 65.8 °F /  18.8 °C 57.4 °F /  14.1 °C 29.5in /  999.3hPa North 4.9mph /  7.9km/h 8mph /  12.9km/h 74% 0.01in /  0.2mm 21 W/m2
08:48 65.5 °F /  18.6 °C 57.4 °F /  14.1 °C 29.5in /  999.0hPa East 2.9mph /  4.7km/h 6mph /  9.7km/h 75% 0.01in /  0.2mm 21 W/m2
08:53 65.3 °F /  18.5 °C 57.6 °F /  14.2 °C 29.5in /  999.0hPa North 0.9mph /  1.4km/h 2mph /  3.2km/h 76% 0.01in /  0.2mm 32 W/m2
08:58 64.9 °F /  18.3 °C 57.2 °F /  14 °C 29.5in /  999.0hPa NE 2.9mph /  4.7km/h 4mph /  6.4km/h 76% 0.01in /  0.2mm 33 W/m2
09:03 64.9 °F /  18.3 °C 57.6 °F /  14.2 °C 29.5in /  999.0hPa East 4mph /  6.4km/h 13mph /  20.9km/h 77% 0.01in /  0.2mm 37 W/m2
09:08 64.8 °F /  18.2 °C 57.4 °F /  14.1 °C 29.5in /  999.3hPa East 4mph /  6.4km/h 7mph /  11.3km/h 77% 0.01in /  0.2mm 28 W/m2
09:13 64.6 °F /  18.1 °C 57.6 °F /  14.2 °C 29.5in /  999.3hPa NNW 2mph /  3.2km/h 5mph /  8km/h 78% 0.02in /  0.5mm 21 W/m2
09:18 64.6 °F /  18.1 °C 57.9 °F /  14.4 °C 29.5in /  999.3hPa NE 2mph /  3.2km/h 14mph /  22.5km/h 79% 0.02in /  0.5mm 18 W/m2
09:23 64.2 °F /  17.9 °C 57.6 °F /  14.2 °C 29.5in /  999.0hPa East 2.9mph /  4.7km/h 7mph /  11.3km/h 79% 0.02in /  0.5mm 26 W/m2
09:28 64.2 °F /  17.9 °C 57.2 °F /  14 °C 29.5in /  999.3hPa ESE 2mph /  3.2km/h 14mph /  22.5km/h 78% 0.02in /  0.5mm 28 W/m2
09:33 64.2 °F /  17.9 °C 57.6 °F /  14.2 °C 29.5in /  999.7hPa NNE 2.9mph /  4.7km/h 9mph /  14.5km/h 79% 0.02in /  0.5mm 16 W/m2
09:38 64.4 °F /  18 °C 57 °F /  13.9 °C 29.5in /  999.7hPa NE 0.9mph /  1.4km/h 3mph /  4.8km/h 77% 0.01in /  0.2mm 19 W/m2
09:43 64.6 °F /  18.1 °C 57.2 °F /  14 °C 29.5in /  999.7hPa ENE 2.9mph /  4.7km/h 9mph /  14.5km/h 77% 0.01in /  0.2mm 19 W/m2
09:48 64.6 °F /  18.1 °C 56.8 °F /  13.8 °C 29.5in /  999.7hPa NNE 4.9mph /  7.9km/h 5mph /  8km/h 76% 0.01in /  0.2mm 28 W/m2
09:53 64.8 °F /  18.2 °C 57 °F /  13.9 °C 29.5in /  999.7hPa South 0.9mph /  1.4km/h 7mph /  11.3km/h 76% 0.01in /  0.2mm 44 W/m2
09:58 64.8 °F /  18.2 °C 57 °F /  13.9 °C 29.5in /  999.7hPa NNE 0.9mph /  1.4km/h 5mph /  8km/h 76% 0.01in /  0.2mm 42 W/m2
10:03 64.8 °F /  18.2 °C 57 °F /  13.9 °C 29.5in /  999.7hPa ENE 0.9mph /  1.4km/h 5mph /  8km/h 76% 0.01in /  0.2mm 37 W/m2
10:08 64.8 °F /  18.2 °C 57 °F /  13.9 °C 29.5in /  999.7hPa NE 2.9mph /  4.7km/h 5mph /  8km/h 76% 0.01in /  0.2mm 44 W/m2
10:13 64.9 °F /  18.3 °C 56.8 °F /  13.8 °C 29.5in /  999.7hPa North 2mph /  3.2km/h 5mph /  8km/h 75% 0in /  0.0mm 47 W/m2
10:18 64.9 °F /  18.3 °C 57.2 °F /  14 °C 29.5in /  999.7hPa ESE 0.9mph /  1.4km/h 4mph /  6.4km/h 76% 0in /  0.0mm 37 W/m2
10:23 64.9 °F /  18.3 °C 57.2 °F /  14 °C 29.5in /  999.7hPa ESE 2.9mph /  4.7km/h 5mph /  8km/h 76% 0in /  0.0mm 42 W/m2
10:28 64.9 °F /  18.3 °C 56.8 °F /  13.8 °C 29.5in /  999.3hPa SE 2mph /  3.2km/h 10mph /  16.1km/h 75% 0in /  0.0mm 83 W/m2
10:33 65.1 °F /  18.4 °C 57.4 °F /  14.1 °C 29.5in /  999.3hPa ENE 8.9mph /  14.3km/h 10mph /  16.1km/h 76% 0in /  0.0mm 54 W/m2
10:38 65.3 °F /  18.5 °C 57.2 °F /  14 °C 29.5in /  999.7hPa ESE 2mph /  3.2km/h 6mph /  9.7km/h 75% 0in /  0.0mm 81 W/m2
10:43 65.5 °F /  18.6 °C 57.4 °F /  14.1 °C 29.5in /  999.7hPa East 6.9mph /  11.1km/h 10mph /  16.1km/h 75% 0in /  0.0mm 88 W/m2
10:48 65.8 °F /  18.8 °C 57.4 °F /  14.1 °C 29.5in /  999.7hPa East 6mph /  9.7km/h 6mph /  9.7km/h 74% 0in /  0.0mm 77 W/m2
10:53 66 °F /  18.9 °C 57.6 °F /  14.2 °C 29.5in /  999.7hPa ENE 4mph /  6.4km/h 10mph /  16.1km/h 74% 0in /  0.0mm 81 W/m2
10:58 66.4 °F /  19.1 °C 57.4 °F /  14.1 °C 29.5in /  999.7hPa WNW 2.9mph /  4.7km/h 5mph /  8km/h 73% 0in /  0.0mm 77 W/m2
11:03 66.6 °F /  19.2 °C 57.2 °F /  14 °C 29.5in /  999.7hPa East 2mph /  3.2km/h 4mph /  6.4km/h 72% 0in /  0.0mm 76 W/m2
11:08 66.7 °F /  19.3 °C 57.4 °F /  14.1 °C 29.5in /  999.3hPa NE 4mph /  6.4km/h 6mph /  9.7km/h 72% 0in /  0.0mm 102 W/m2
11:13 67.1 °F /  19.5 °C 57.4 °F /  14.1 °C 29.5in /  999.3hPa East 2mph /  3.2km/h 3mph /  4.8km/h 71% 0in /  0.0mm 114 W/m2
11:18 67.5 °F /  19.7 °C 57.4 °F /  14.1 °C 29.5in /  999.3hPa North 2mph /  3.2km/h 7mph /  11.3km/h 70% 0in /  0.0mm 105 W/m2
11:23 67.6 °F /  19.8 °C 57.6 °F /  14.2 °C 29.5in /  999.3hPa ENE 8.1mph /  13km/h 8mph /  12.9km/h 70% 0in /  0.0mm 83 W/m2
11:28 67.6 °F /  19.8 °C 57 °F /  13.9 °C 29.5in /  999.3hPa ENE 2mph /  3.2km/h 8mph /  12.9km/h 69% 0in /  0.0mm 81 W/m2
11:33 67.8 °F /  19.9 °C 57.2 °F /  14 °C 29.5in /  999.3hPa WSW 0.9mph /  1.4km/h 7mph /  11.3km/h 69% 0in /  0.0mm 81 W/m2
11:38 67.8 °F /  19.9 °C 56.8 °F /  13.8 °C 29.5in /  999.3hPa ENE 4.9mph /  7.9km/h 10mph /  16.1km/h 68% 0in /  0.0mm 83 W/m2
11:43 68.2 °F /  20.1 °C 57.2 °F /  14 °C 29.5in /  999.3hPa North 2mph /  3.2km/h 6mph /  9.7km/h 68% 0in /  0.0mm 93 W/m2
11:48 68.2 °F /  20.1 °C 57.2 °F /  14 °C 29.5in /  999.3hPa East 2.9mph /  4.7km/h 5mph /  8km/h 68% 0in /  0.0mm 93 W/m2
11:53 68.4 °F /  20.2 °C 57.4 °F /  14.1 °C 29.5in /  999.3hPa ENE 4mph /  6.4km/h 6mph /  9.7km/h 68% 0in /  0.0mm 120 W/m2
11:58 68.5 °F /  20.3 °C 57.9 °F /  14.4 °C 29.5in /  999.3hPa SSE 13mph /  20.9km/h 13mph /  20.9km/h 69% 0in /  0.0mm 109 W/m2
12:03 68.5 °F /  20.3 °C 57.6 °F /  14.2 °C 29.5in /  999.3hPa North 2.9mph /  4.7km/h 6mph /  9.7km/h 68% 0in /  0.0mm 125 W/m2
12:08 68.5 °F /  20.3 °C 57.6 °F /  14.2 °C 29.5in /  999.3hPa North 2mph /  3.2km/h 11mph /  17.7km/h 68% 0in /  0.0mm 146 W/m2
12:13 68.5 °F /  20.3 °C 57.6 °F /  14.2 °C 29.5in /  999.3hPa NNE 4.9mph /  7.9km/h 9mph /  14.5km/h 68% 0in /  0.0mm 156 W/m2
12:18 68.7 °F /  20.4 °C 57.4 °F /  14.1 °C 29.5in /  999.3hPa NNW 4.9mph /  7.9km/h 5mph /  8km/h 67% 0in /  0.0mm 158 W/m2
12:23 69.1 °F /  20.6 °C 57.7 °F /  14.3 °C 29.5in /  999.3hPa NW 0.9mph /  1.4km/h 7mph /  11.3km/h 67% 0in /  0.0mm 190 W/m2
12:29 69.4 °F /  20.8 °C 57.6 °F /  14.2 °C 29.5in /  999.3hPa ENE 4.9mph /  7.9km/h 9mph /  14.5km/h 66% 0in /  0.0mm 158 W/m2
12:34 69.6 °F /  20.9 °C 57.4 °F /  14.1 °C 29.5in /  999.0hPa NNE 6.9mph /  11.1km/h 10mph /  16.1km/h 65% 0in /  0.0mm 171 W/m2
12:39 69.8 °F /  21 °C 57.9 °F /  14.4 °C 29.5in /  999.0hPa NNW 2mph /  3.2km/h 6mph /  9.7km/h 66% 0in /  0.0mm 202 W/m2
12:44 70.2 °F /  21.2 °C 57.9 °F /  14.4 °C 29.5in /  999.0hPa NNW 0.9mph /  1.4km/h 3mph /  4.8km/h 65% 0in /  0.0mm 223 W/m2
12:49 70.2 °F /  21.2 °C 57.9 °F /  14.4 °C 29.5in /  999.3hPa NE 2mph /  3.2km/h 6mph /  9.7km/h 65% 0in /  0.0mm 144 W/m2
12:54 70.3 °F /  21.3 °C 57.6 °F /  14.2 °C 29.5in /  999.0hPa WNW 4.9mph /  7.9km/h 8mph /  12.9km/h 64% 0in /  0.0mm 139 W/m2
12:59 70.5 °F /  21.4 °C 57.7 °F /  14.3 °C 29.5in /  999.3hPa NNE 2.9mph /  4.7km/h 15mph /  24.1km/h 64% 0in /  0.0mm 90 W/m2
13:04 70.5 °F /  21.4 °C 57.7 °F /  14.3 °C 29.5in /  999.3hPa SE 2mph /  3.2km/h 8mph /  12.9km/h 64% 0in /  0.0mm 58 W/m2
13:09 70.3 °F /  21.3 °C 57.2 °F /  14 °C 29.5in /  999.7hPa NE 2.9mph /  4.7km/h 15mph /  24.1km/h 63% 0in /  0.0mm 65 W/m2
13:14 70.3 °F /  21.3 °C 57.6 °F /  14.2 °C 29.5in /  999.7hPa NNE 0.9mph /  1.4km/h 5mph /  8km/h 64% 0in /  0.0mm 83 W/m2
13:19 70.3 °F /  21.3 °C 57.6 °F /  14.2 °C 29.5in /  999.7hPa NE 4mph /  6.4km/h 9mph /  14.5km/h 64% 0in /  0.0mm 54 W/m2
13:24 70.2 °F /  21.2 °C 57.9 °F /  14.4 °C 29.5in /  999.7hPa NNW 2mph /  3.2km/h 6mph /  9.7km/h 65% 0in /  0.0mm 37 W/m2
13:29 69.6 °F /  20.9 °C 58.1 °F /  14.5 °C 29.5in /  1000.3hPa WNW 4mph /  6.4km/h 9mph /  14.5km/h 67% 0in /  0.0mm 14 W/m2
13:34 69.1 °F /  20.6 °C 58.8 °F /  14.9 °C 29.6in /  1001.4hPa NW 11mph /  17.7km/h 14mph /  22.5km/h 70% 0.01in /  0.2mm 19 W/m2
13:39 66.4 °F /  19.1 °C 59.4 °F /  15.2 °C 29.6in /  1001.4hPa NW 4mph /  6.4km/h 18mph /  29km/h 78% 0.02in /  0.5mm 32 W/m2
13:44 64.2 °F /  17.9 °C 59 °F /  15 °C 29.6in /  1001.7hPa WNW 4.9mph /  7.9km/h 6mph /  9.7km/h 83% 0.02in /  0.5mm 77 W/m2
13:49 63.1 °F /  17.3 °C 58.6 °F /  14.8 °C 29.6in /  1001.7hPa West 4mph /  6.4km/h 18mph /  29km/h 85% 0.04in /  1.0mm 63 W/m2
13:54 62.1 °F /  16.7 °C 58.1 °F /  14.5 °C 29.6in /  1001.7hPa WNW 4mph /  6.4km/h 10mph /  16.1km/h 87% 0.05in /  1.3mm 58 W/m2
13:59 61.5 °F /  16.4 °C 57.9 °F /  14.4 °C 29.6in /  1001.7hPa NW 4mph /  6.4km/h 8mph /  12.9km/h 88% 0.06in /  1.5mm 70 W/m2
14:04 61.3 °F /  16.3 °C 58.1 °F /  14.5 °C 29.6in /  1002.0hPa WNW 8.1mph /  13km/h 9mph /  14.5km/h 89% 0.06in /  1.5mm 107 W/m2
14:09 61.3 °F /  16.3 °C 58.5 °F /  14.7 °C 29.6in /  1002.0hPa West 0.9mph /  1.4km/h 5mph /  8km/h 90% 0.07in /  1.8mm 158 W/m2
14:14 61.3 °F /  16.3 °C 58.6 °F /  14.8 °C 29.6in /  1002.0hPa West 9mph /  14.5km/h 9mph /  14.5km/h 91% 0.08in /  2.0mm 171 W/m2
14:19 61.3 °F /  16.3 °C 58.6 °F /  14.8 °C 29.6in /  1002.0hPa WSW 2.9mph /  4.7km/h 5mph /  8km/h 91% 0.09in /  2.3mm 202 W/m2
14:24 61.5 °F /  16.4 °C 58.8 °F /  14.9 °C 29.6in /  1002.0hPa North 2mph /  3.2km/h 5mph /  8km/h 91% 0.09in /  2.3mm 213 W/m2
14:29 61.5 °F /  16.4 °C 58.8 °F /  14.9 °C 29.6in /  1002.0hPa North 2.9mph /  4.7km/h 7mph /  11.3km/h 91% 0.09in /  2.3mm 193 W/m2
14:34 61.5 °F /  16.4 °C 58.8 °F /  14.9 °C 29.6in /  1002.0hPa WNW 4mph /  6.4km/h 4mph /  6.4km/h 91% 0.09in /  2.3mm 237 W/m2
14:39 61.5 °F /  16.4 °C 58.8 °F /  14.9 °C 29.6in /  1002.0hPa NW 0.9mph /  1.4km/h 4mph /  6.4km/h 91% 0.09in /  2.3mm 250 W/m2
14:44 61.9 °F /  16.6 °C 59.2 °F /  15.1 °C 29.6in /  1002.0hPa WNW 4mph /  6.4km/h 8mph /  12.9km/h 91% 0.08in /  2.0mm 248 W/m2
14:49 62.1 °F /  16.7 °C 59.7 °F /  15.4 °C 29.6in /  1002.0hPa NW 2.9mph /  4.7km/h 4mph /  6.4km/h 92% 0.06in /  1.5mm 227 W/m2
14:54 62.1 °F /  16.7 °C 59.4 °F /  15.2 °C 29.6in /  1002.0hPa ENE 4mph /  6.4km/h 6mph /  9.7km/h 91% 0.06in /  1.5mm 176 W/m2
14:59 62.1 °F /  16.7 °C 59.4 °F /  15.2 °C 29.6in /  1002.0hPa WNW 2.9mph /  4.7km/h 5mph /  8km/h 91% 0.05in /  1.3mm 149 W/m2
15:04 62.1 °F /  16.7 °C 59.4 °F /  15.2 °C 29.6in /  1002.4hPa East 0.9mph /  1.4km/h 4mph /  6.4km/h 91% 0.04in /  1.0mm 98 W/m2
15:09 62.1 °F /  16.7 °C 59.4 °F /  15.2 °C 29.6in /  1002.4hPa NNE 2mph /  3.2km/h 2mph /  3.2km/h 91% 0.03in /  0.8mm 146 W/m2
15:14 62.1 °F /  16.7 °C 59.4 °F /  15.2 °C 29.6in /  1002.7hPa WNW 4mph /  6.4km/h 6mph /  9.7km/h 91% 0.02in /  0.5mm 174 W/m2
15:19 62.1 °F /  16.7 °C 59.4 °F /  15.2 °C 29.6in /  1003.0hPa NW 4.9mph /  7.9km/h 8mph /  12.9km/h 91% 0.02in /  0.5mm 81 W/m2
15:24 61.9 °F /  16.6 °C 59.2 °F /  15.1 °C 29.6in /  1003.0hPa North 2mph /  3.2km/h 4mph /  6.4km/h 91% 0.01in /  0.2mm 62 W/m2
15:29 61.9 °F /  16.6 °C 59.2 °F /  15.1 °C 29.6in /  1003.0hPa Calm   4mph /  6.4km/h 91% 0.01in /  0.2mm 118 W/m2
15:34 61.9 °F /  16.6 °C 59.2 °F /  15.1 °C 29.6in /  1003.0hPa NE 0.9mph /  1.4km/h 1mph /  1.6km/h 91% 0.02in /  0.5mm 91 W/m2
15:39 61.9 °F /  16.6 °C 59.2 °F /  15.1 °C 29.6in /  1003.4hPa Calm   6mph /  9.7km/h 91% 0.01in /  0.2mm 84 W/m2
15:44 61.9 °F /  16.6 °C 59.5 °F /  15.3 °C 29.6in /  1003.4hPa NW 2.9mph /  4.7km/h 4mph /  6.4km/h 92% 0.02in /  0.5mm 120 W/m2
15:49 61.9 °F /  16.6 °C 59.5 °F /  15.3 °C 29.6in /  1003.4hPa NE 2mph /  3.2km/h 5mph /  8km/h 92% 0.02in /  0.5mm 105 W/m2
15:54 61.9 °F /  16.6 °C 59.5 °F /  15.3 °C 29.6in /  1003.4hPa North 0.9mph /  1.4km/h 4mph /  6.4km/h 92% 0.02in /  0.5mm 88 W/m2
15:59 61.7 °F /  16.5 °C 59.4 °F /  15.2 °C 29.6in /  1003.4hPa ENE 2mph /  3.2km/h 4mph /  6.4km/h 92% 0.02in /  0.5mm 93 W/m2
16:04 61.9 °F /  16.6 °C 59.5 °F /  15.3 °C 29.6in /  1003.7hPa NE 2mph /  3.2km/h 4mph /  6.4km/h 92% 0.03in /  0.8mm 70 W/m2
16:09 61.9 °F /  16.6 °C 59.5 °F /  15.3 °C 29.6in /  1003.7hPa WNW 4.9mph /  7.9km/h 9mph /  14.5km/h 92% 0.03in /  0.8mm 67 W/m2
16:14 61.7 °F /  16.5 °C 59.4 °F /  15.2 °C 29.7in /  1004.1hPa East 4mph /  6.4km/h 5mph /  8km/h 92% 0.04in /  1.0mm 69 W/m2
16:19 61.7 °F /  16.5 °C 59.4 °F /  15.2 °C 29.7in /  1004.1hPa West 2.9mph /  4.7km/h 6mph /  9.7km/h 92% 0.04in /  1.0mm 76 W/m2
16:24 61.7 °F /  16.5 °C 59.4 °F /  15.2 °C 29.7in /  1004.1hPa ENE 2mph /  3.2km/h 4mph /  6.4km/h 92% 0.05in /  1.3mm 60 W/m2
16:29 61.5 °F /  16.4 °C 59.2 °F /  15.1 °C 29.7in /  1004.1hPa ENE 2.9mph /  4.7km/h 3mph /  4.8km/h 92% 0.06in /  1.5mm 98 W/m2
16:34 61.5 °F /  16.4 °C 59.2 °F /  15.1 °C 29.7in /  1004.4hPa NE 2.9mph /  4.7km/h 4mph /  6.4km/h 92% 0.05in /  1.3mm 105 W/m2
16:39 61.5 °F /  16.4 °C 59.2 °F /  15.1 °C 29.7in /  1004.4hPa North 4.9mph /  7.9km/h 5mph /  8km/h 92% 0.05in /  1.3mm 107 W/m2
16:44 61.7 °F /  16.5 °C 59.4 °F /  15.2 °C 29.7in /  1004.4hPa ENE 2.9mph /  4.7km/h 4mph /  6.4km/h 92% 0.04in /  1.0mm 125 W/m2
16:49 61.7 °F /  16.5 °C 59.4 °F /  15.2 °C 29.7in /  1004.4hPa ESE 2mph /  3.2km/h 5mph /  8km/h 92% 0.04in /  1.0mm 70 W/m2
16:54 61.5 °F /  16.4 °C 59.2 °F /  15.1 °C 29.7in /  1004.4hPa NNW 0.9mph /  1.4km/h 4mph /  6.4km/h 92% 0.04in /  1.0mm 70 W/m2
16:59 61.7 °F /  16.5 °C 59.4 °F /  15.2 °C 29.7in /  1004.7hPa NW 2.9mph /  4.7km/h 3mph /  4.8km/h 92% 0.04in /  1.0mm 33 W/m2
17:04 61.5 °F /  16.4 °C 59.2 °F /  15.1 °C 29.7in /  1004.7hPa WSW 0.9mph /  1.4km/h 2mph /  3.2km/h 92% 0.06in /  1.5mm 46 W/m2
17:09 61.3 °F /  16.3 °C 59 °F /  15 °C 29.7in /  1004.7hPa NNW 2mph /  3.2km/h 7mph /  11.3km/h 92% 0.06in /  1.5mm 35 W/m2
17:14 61.2 °F /  16.2 °C 58.5 °F /  14.7 °C 29.7in /  1005.1hPa WNW 4mph /  6.4km/h 4mph /  6.4km/h 91% 0.07in /  1.8mm 47 W/m2
17:19 61.2 °F /  16.2 °C 58.5 °F /  14.7 °C 29.7in /  1005.1hPa NW 4mph /  6.4km/h 4mph /  6.4km/h 91% 0.07in /  1.8mm 62 W/m2
17:24 61 °F /  16.1 °C 58.3 °F /  14.6 °C 29.7in /  1005.1hPa NW 2mph /  3.2km/h 4mph /  6.4km/h 91% 0.06in /  1.5mm 49 W/m2
17:29 60.8 °F /  16 °C 58.1 °F /  14.5 °C 29.7in /  1005.1hPa NNE 2.9mph /  4.7km/h 5mph /  8km/h 91% 0.06in /  1.5mm 53 W/m2
17:34 60.6 °F /  15.9 °C 57.9 °F /  14.4 °C 29.7in /  1005.1hPa East 2mph /  3.2km/h 3mph /  4.8km/h 91% 0.06in /  1.5mm 67 W/m2
17:39 60.6 °F /  15.9 °C 57.9 °F /  14.4 °C 29.7in /  1005.4hPa WNW 2.9mph /  4.7km/h 5mph /  8km/h 91% 0.06in /  1.5mm 58 W/m2
17:44 60.6 °F /  15.9 °C 57.9 °F /  14.4 °C 29.7in /  1005.8hPa Calm   3mph /  4.8km/h 91% 0.06in /  1.5mm 53 W/m2
17:49 60.6 °F /  15.9 °C 57.9 °F /  14.4 °C 29.7in /  1006.1hPa NW 2mph /  3.2km/h 4mph /  6.4km/h 91% 0.06in /  1.5mm 28 W/m2
17:54 60.4 °F /  15.8 °C 57.7 °F /  14.3 °C 29.7in /  1006.4hPa NE 0.9mph /  1.4km/h 5mph /  8km/h 91% 0.05in /  1.3mm 30 W/m2
17:59 59.9 °F /  15.5 °C 56.7 °F /  13.7 °C 29.7in /  1006.1hPa WSW 2mph /  3.2km/h 15mph /  24.1km/h 89% 0.05in /  1.3mm 28 W/m2
18:04 59.4 °F /  15.2 °C 55.8 °F /  13.2 °C 29.7in /  1006.4hPa NW 12.1mph /  19.5km/h 12mph /  19.3km/h 88% 0.02in /  0.5mm 26 W/m2
18:09 59 °F /  15 °C 55.8 °F /  13.2 °C 29.7in /  1006.8hPa WNW 2.9mph /  4.7km/h 15mph /  24.1km/h 89% 0.02in /  0.5mm 16 W/m2
18:14 58.6 °F /  14.8 °C 55.4 °F /  13 °C 29.7in /  1006.4hPa SSW 2.9mph /  4.7km/h 8mph /  12.9km/h 89% 0.01in /  0.2mm 18 W/m2
18:19 58.1 °F /  14.5 °C 54.9 °F /  12.7 °C 29.7in /  1007.1hPa West 2.9mph /  4.7km/h 6mph /  9.7km/h 89% 0.01in /  0.2mm 18 W/m2
18:24 57.7 °F /  14.3 °C 54.5 °F /  12.5 °C 29.8in /  1007.5hPa WNW 4.9mph /  7.9km/h 8mph /  12.9km/h 89% 0.01in /  0.2mm 18 W/m2
18:29 57.6 °F /  14.2 °C 54.3 °F /  12.4 °C 29.8in /  1007.8hPa West 2.9mph /  4.7km/h 10mph /  16.1km/h 89% 0.01in /  0.2mm 12 W/m2
18:34 57.2 °F /  14 °C 54 °F /  12.2 °C 29.8in /  1007.5hPa West 4mph /  6.4km/h 9mph /  14.5km/h 89% 0.01in /  0.2mm 16 W/m2
18:39 56.8 °F /  13.8 °C 53.6 °F /  12 °C 29.8in /  1007.5hPa WNW 4mph /  6.4km/h 5mph /  8km/h 89% 0.01in /  0.2mm 14 W/m2
18:44 56.7 °F /  13.7 °C 53.8 °F /  12.1 °C 29.8in /  1008.1hPa West 2.9mph /  4.7km/h 11mph /  17.7km/h 90% 0.01in /  0.2mm 11 W/m2
18:49 56.5 °F /  13.6 °C 53.6 °F /  12 °C 29.8in /  1008.5hPa WSW 2.9mph /  4.7km/h 8mph /  12.9km/h 90% 0.01in /  0.2mm 9 W/m2
18:54 56.3 °F /  13.5 °C 53.4 °F /  11.9 °C 29.8in /  1008.1hPa WNW 4.9mph /  7.9km/h 6mph /  9.7km/h 90% 0.01in /  0.2mm 5 W/m2
18:59 56.1 °F /  13.4 °C 53.2 °F /  11.8 °C 29.8in /  1008.8hPa WSW 0.9mph /  1.4km/h 8mph /  12.9km/h 90% 0.01in /  0.2mm 0 W/m2
19:04 55.9 °F /  13.3 °C 53.1 °F /  11.7 °C 29.8in /  1009.1hPa SW 4mph /  6.4km/h 8mph /  12.9km/h 90% 0in /  0.0mm 0 W/m2
19:09 55.8 °F /  13.2 °C 52.9 °F /  11.6 °C 29.8in /  1009.1hPa WSW 2mph /  3.2km/h 5mph /  8km/h 90% 0in /  0.0mm 0 W/m2
19:14 55.6 °F /  13.1 °C 52.7 °F /  11.5 °C 29.8in /  1008.8hPa WNW 4.9mph /  7.9km/h 8mph /  12.9km/h 90% 0in /  0.0mm 0 W/m2
19:19 55.4 °F /  13 °C 52.9 °F /  11.6 °C 29.8in /  1009.1hPa WNW 0.9mph /  1.4km/h 2mph /  3.2km/h 91% 0in /  0.0mm 0 W/m2
19:24 55.2 °F /  12.9 °C 52.7 °F /  11.5 °C 29.8in /  1009.1hPa WSW 2.9mph /  4.7km/h 8mph /  12.9km/h 91% 0in /  0.0mm 0 W/m2
19:29 55 °F /  12.8 °C 52.5 °F /  11.4 °C 29.8in /  1009.5hPa NW 0.9mph /  1.4km/h 4mph /  6.4km/h 91% 0in /  0.0mm 0 W/m2
19:35 55 °F /  12.8 °C 52.5 °F /  11.4 °C 29.8in /  1009.8hPa West 2mph /  3.2km/h 5mph /  8km/h 91% 0in /  0.0mm 0 W/m2
19:40 55 °F /  12.8 °C 52.5 °F /  11.4 °C 29.8in /  1010.2hPa West 2mph /  3.2km/h 6mph /  9.7km/h 91% 0in /  0.0mm 0 W/m2
19:45 55 °F /  12.8 °C 52.5 °F /  11.4 °C 29.8in /  1010.2hPa WNW 0.9mph /  1.4km/h 4mph /  6.4km/h 91% 0in /  0.0mm 0 W/m2
19:50 54.9 °F /  12.7 °C 52.3 °F /  11.3 °C 29.8in /  1010.5hPa West 0.9mph /  1.4km/h 5mph /  8km/h 91% 0in /  0.0mm 0 W/m2
19:55 54.9 °F /  12.7 °C 52.3 °F /  11.3 °C 29.8in /  1010.2hPa Calm   5mph /  8km/h 91% 0in /  0.0mm 0 W/m2
20:00 54.9 °F /  12.7 °C 52.3 °F /  11.3 °C 29.8in /  1010.2hPa WNW 2mph /  3.2km/h 2mph /  3.2km/h 91% 0in /  0.0mm 0 W/m2
20:05 54.7 °F /  12.6 °C 52.2 °F /  11.2 °C 29.9in /  1010.8hPa Calm   4mph /  6.4km/h 91% 0in /  0.0mm 0 W/m2
20:10 54.7 °F /  12.6 °C 52.2 °F /  11.2 °C 29.9in /  1010.8hPa West 2.9mph /  4.7km/h 4mph /  6.4km/h 91% 0in /  0.0mm 0 W/m2
20:15 54.7 °F /  12.6 °C 52.2 °F /  11.2 °C 29.9in /  1011.2hPa Calm   4mph /  6.4km/h 91% 0in /  0.0mm 0 W/m2
20:20 54.5 °F /  12.5 °C 52 °F /  11.1 °C 29.9in /  1011.2hPa Calm   3mph /  4.8km/h 91% 0in /  0.0mm 0 W/m2
20:25 54.5 °F /  12.5 °C 52 °F /  11.1 °C 29.9in /  1011.2hPa NW 0.9mph /  1.4km/h 4mph /  6.4km/h 91% 0in /  0.0mm 0 W/m2
20:30 54.5 °F /  12.5 °C 52.2 °F /  11.2 °C 29.9in /  1011.2hPa Calm   2mph /  3.2km/h 92% 0in /  0.0mm 0 W/m2
20:35 54.3 °F /  12.4 °C 52 °F /  11.1 °C 29.9in /  1011.9hPa NW 2.9mph /  4.7km/h 6mph /  9.7km/h 92% 0in /  0.0mm 0 W/m2
20:40 54.3 °F /  12.4 °C 52 °F /  11.1 °C 29.9in /  1011.5hPa Calm   2mph /  3.2km/h 92% 0in /  0.0mm 0 W/m2
20:45 54.3 °F /  12.4 °C 52 °F /  11.1 °C 29.9in /  1011.5hPa Calm   5mph /  8km/h 92% 0in /  0.0mm 0 W/m2
20:50 54.3 °F /  12.4 °C 52 °F /  11.1 °C 29.9in /  1011.5hPa Calm   4mph /  6.4km/h 92% 0in /  0.0mm 0 W/m2
20:55 54.3 °F /  12.4 °C 52 °F /  11.1 °C 29.9in /  1011.2hPa West 2mph /  3.2km/h 3mph /  4.8km/h 92% 0in /  0.0mm 0 W/m2
21:00 54.3 °F /  12.4 °C 52 °F /  11.1 °C 29.9in /  1011.5hPa Calm     92% 0in /  0.0mm 0 W/m2
21:05 54.3 °F /  12.4 °C 52 °F /  11.1 °C 29.9in /  1011.2hPa Calm   2mph /  3.2km/h 92% 0in /  0.0mm 0 W/m2
21:10 54.3 °F /  12.4 °C 52 °F /  11.1 °C 29.9in /  1011.5hPa NNE 0.9mph /  1.4km/h 1mph /  1.6km/h 92% 0in /  0.0mm 0 W/m2
21:15 54.3 °F /  12.4 °C 52 °F /  11.1 °C 29.9in /  1011.9hPa Calm   3mph /  4.8km/h 92% 0in /  0.0mm 0 W/m2
21:20 54.3 °F /  12.4 °C 52 °F /  11.1 °C 29.9in /  1011.9hPa West 0.9mph /  1.4km/h 2mph /  3.2km/h 92% 0in /  0.0mm 0 W/m2
21:25 54.1 °F /  12.3 °C 51.8 °F /  11 °C 29.9in /  1011.9hPa Calm   3mph /  4.8km/h 92% 0in /  0.0mm 0 W/m2
21:30 54.3 °F /  12.4 °C 52 °F /  11.1 °C 29.9in /  1012.2hPa WNW 0.9mph /  1.4km/h 2mph /  3.2km/h 92% 0in /  0.0mm 0 W/m2
21:35 54.3 °F /  12.4 °C 52.3 °F /  11.3 °C 29.9in /  1012.5hPa NW 2mph /  3.2km/h 6mph /  9.7km/h 93% 0in /  0.0mm 0 W/m2
21:40 54.3 °F /  12.4 °C 52.3 °F /  11.3 °C 29.9in /  1012.5hPa NW 2mph /  3.2km/h 3mph /  4.8km/h 93% 0in /  0.0mm 0 W/m2
21:45 54.3 °F /  12.4 °C 52.3 °F /  11.3 °C 29.9in /  1012.5hPa Calm   2mph /  3.2km/h 93% 0in /  0.0mm 0 W/m2
21:50 54.3 °F /  12.4 °C 52.3 °F /  11.3 °C 29.9in /  1012.9hPa Calm   3mph /  4.8km/h 93% 0in /  0.0mm 0 W/m2
21:55 54.3 °F /  12.4 °C 52.3 °F /  11.3 °C 29.9in /  1012.9hPa WNW 0.9mph /  1.4km/h 2mph /  3.2km/h 93% 0in /  0.0mm 0 W/m2
22:00 54.3 °F /  12.4 °C 52.3 °F /  11.3 °C 29.9in /  1012.9hPa West 0.9mph /  1.4km/h 1mph /  1.6km/h 93% 0in /  0.0mm 0 W/m2
22:05 54.3 °F /  12.4 °C 52.3 °F /  11.3 °C 29.9in /  1012.9hPa Calm   2mph /  3.2km/h 93% 0in /  0.0mm 0 W/m2
22:10 54.3 °F /  12.4 °C 52 °F /  11.1 °C 29.9in /  1012.9hPa WNW 0.9mph /  1.4km/h 3mph /  4.8km/h 92% 0in /  0.0mm 0 W/m2
22:15 54.3 °F /  12.4 °C 52.3 °F /  11.3 °C 29.9in /  1012.9hPa NW 2mph /  3.2km/h 4mph /  6.4km/h 93% 0in /  0.0mm 0 W/m2
22:20 54.1 °F /  12.3 °C 52.2 °F /  11.2 °C 29.9in /  1012.9hPa NW 2mph /  3.2km/h 4mph /  6.4km/h 93% 0in /  0.0mm 0 W/m2
22:25 54.3 °F /  12.4 °C 52 °F /  11.1 °C 29.9in /  1012.9hPa Calm   3mph /  4.8km/h 92% 0in /  0.0mm 0 W/m2
22:30 54.1 °F /  12.3 °C 51.8 °F /  11 °C 29.9in /  1012.9hPa ESE 0.9mph /  1.4km/h 3mph /  4.8km/h 92% 0in /  0.0mm 0 W/m2
22:35 54.1 °F /  12.3 °C 51.8 °F /  11 °C 29.9in /  1012.9hPa West 2mph /  3.2km/h 2mph /  3.2km/h 92% 0in /  0.0mm 0 W/m2
22:40 54.1 °F /  12.3 °C 51.8 °F /  11 °C 29.9in /  1012.9hPa WNW 2mph /  3.2km/h 2mph /  3.2km/h 92% 0in /  0.0mm 0 W/m2
22:45 54 °F /  12.2 °C 51.6 °F /  10.9 °C 29.9in /  1012.9hPa SSW 0.9mph /  1.4km/h 1mph /  1.6km/h 92% 0in /  0.0mm 0 W/m2
22:50 54 °F /  12.2 °C 52 °F /  11.1 °C 29.9in /  1012.9hPa SSW 0.9mph /  1.4km/h 1mph /  1.6km/h 93% 0in /  0.0mm 0 W/m2
22:55 54 °F /  12.2 °C 52 °F /  11.1 °C 29.9in /  1012.9hPa Calm     93% 0in /  0.0mm 0 W/m2
23:00 54 °F /  12.2 °C 52 °F /  11.1 °C 29.9in /  1012.9hPa East 0.9mph /  1.4km/h 2mph /  3.2km/h 93% 0in /  0.0mm 0 W/m2
23:05 54 °F /  12.2 °C 52 °F /  11.1 °C 29.9in /  1012.9hPa NE 0.9mph /  1.4km/h 2mph /  3.2km/h 93% 0in /  0.0mm 0 W/m2
23:10 54 °F /  12.2 °C 52 °F /  11.1 °C 29.9in /  1012.9hPa Calm   2mph /  3.2km/h 93% 0in /  0.0mm 0 W/m2
23:15 54 °F /  12.2 °C 52 °F /  11.1 °C 29.9in /  1013.2hPa NNW 0.9mph /  1.4km/h 1mph /  1.6km/h 93% 0in /  0.0mm 0 W/m2
23:20 54 °F /  12.2 °C 52 °F /  11.1 °C 29.9in /  1013.2hPa Calm   2mph /  3.2km/h 93% 0in /  0.0mm 0 W/m2
23:25 54 °F /  12.2 °C 52 °F /  11.1 °C 29.9in /  1013.2hPa NW 0.9mph /  1.4km/h 2mph /  3.2km/h 93% 0in /  0.0mm 0 W/m2
23:30 54 °F /  12.2 °C 52 °F /  11.1 °C 29.9in /  1013.2hPa Calm   2mph /  3.2km/h 93% 0in /  0.0mm 0 W/m2
23:35 54 °F /  12.2 °C 52 °F /  11.1 °C 29.9in /  1013.2hPa ESE 0.9mph /  1.4km/h 3mph /  4.8km/h 93% 0in /  0.0mm 0 W/m2
23:40 54 °F /  12.2 °C 52 °F /  11.1 °C 29.9in /  1013.2hPa Calm   1mph /  1.6km/h 93% 0in /  0.0mm 0 W/m2
23:45 54 °F /  12.2 °C 52 °F /  11.1 °C 29.9in /  1013.2hPa Calm   1mph /  1.6km/h 93% 0in /  0.0mm 0 W/m2
23:50 54 °F /  12.2 °C 52 °F /  11.1 °C 29.9in /  1013.5hPa Calm   1mph /  1.6km/h 93% 0in /  0.0mm 0 W/m2
23:55 54 °F /  12.2 °C 52 °F /  11.1 °C 29.9in /  1013.5hPa Calm     93% 0in /  0.0mm 0 W/m2
Juneau County Weather
Compliments of Weather Underground - 4 mb